sensor_id;sensor_type;location;lat;lon;timestamp;P1;durP1;ratioP1;P2;durP2;ratioP2
6203;SDS011;3135;42.602;23.468;2022-07-18T00:00:01;1.00;;;1.00;;
6203;SDS011;3135;42.602;23.468;2022-07-18T00:02:28;1.40;;;1.00;;
6203;SDS011;3135;42.602;23.468;2022-07-18T00:04:53;1.00;;;1.00;;
6203;SDS011;3135;42.602;23.468;2022-07-18T00:07:20;1.58;;;1.20;;
6203;SDS011;3135;42.602;23.468;2022-07-18T00:09:46;1.63;;;1.30;;
6203;SDS011;3135;42.602;23.468;2022-07-18T00:12:11;1.20;;;1.10;;
6203;SDS011;3135;42.602;23.468;2022-07-18T00:14:37;1.67;;;1.17;;
6203;SDS011;3135;42.602;23.468;2022-07-18T00:17:03;1.17;;;1.07;;
6203;SDS011;3135;42.602;23.468;2022-07-18T00:19:30;1.33;;;1.23;;
6203;SDS011;3135;42.602;23.468;2022-07-18T00:21:56;1.60;;;1.30;;
6203;SDS011;3135;42.602;23.468;2022-07-18T00:24:21;1.80;;;1.40;;
6203;SDS011;3135;42.602;23.468;2022-07-18T00:26:47;1.30;;;1.20;;
6203;SDS011;3135;42.602;23.468;2022-07-18T00:29:12;1.47;;;1.30;;
6203;SDS011;3135;42.602;23.468;2022-07-18T00:31:38;1.80;;;1.10;;
6203;SDS011;3135;42.602;23.468;2022-07-18T00:34:03;1.40;;;1.30;;
6203;SDS011;3135;42.602;23.468;2022-07-18T00:36:29;1.50;;;1.40;;
6203;SDS011;3135;42.602;23.468;2022-07-18T00:38:55;2.00;;;1.20;;
6203;SDS011;3135;42.602;23.468;2022-07-18T00:41:21;1.58;;;1.48;;
6203;SDS011;3135;42.602;23.468;2022-07-18T00:43:47;1.50;;;1.30;;
6203;SDS011;3135;42.602;23.468;2022-07-18T00:46:13;1.30;;;1.20;;
6203;SDS011;3135;42.602;23.468;2022-07-18T00:48:42;1.73;;;1.33;;
6203;SDS011;3135;42.602;23.468;2022-07-18T00:51:07;1.55;;;1.30;;
6203;SDS011;3135;42.602;23.468;2022-07-18T00:53:34;2.67;;;1.50;;
6203;SDS011;3135;42.602;23.468;2022-07-18T00:56:01;1.40;;;1.30;;
6203;SDS011;3135;42.602;23.468;2022-07-18T00:58:27;1.67;;;1.23;;
6203;SDS011;3135;42.602;23.468;2022-07-18T01:00:53;1.67;;;1.20;;
6203;SDS011;3135;42.602;23.468;2022-07-18T01:03:38;1.27;;;1.15;;
6203;SDS011;3135;42.602;23.468;2022-07-18T01:06:04;1.33;;;1.23;;
6203;SDS011;3135;42.602;23.468;2022-07-18T01:08:29;2.50;;;1.20;;
6203;SDS011;3135;42.602;23.468;2022-07-18T01:10:55;1.30;;;1.20;;
6203;SDS011;3135;42.602;23.468;2022-07-18T01:13:20;1.00;;;1.00;;
6203;SDS011;3135;42.602;23.468;2022-07-18T01:15:46;1.50;;;1.20;;
6203;SDS011;3135;42.602;23.468;2022-07-18T01:18:12;1.20;;;1.00;;
6203;SDS011;3135;42.602;23.468;2022-07-18T01:20:37;1.13;;;1.00;;
6203;SDS011;3135;42.602;23.468;2022-07-18T01:23:03;1.17;;;1.00;;
6203;SDS011;3135;42.602;23.468;2022-07-18T01:25:29;1.58;;;0.90;;
6203;SDS011;3135;42.602;23.468;2022-07-18T01:27:54;1.40;;;1.00;;
6203;SDS011;3135;42.602;23.468;2022-07-18T01:30:22;1.60;;;1.00;;
6203;SDS011;3135;42.602;23.468;2022-07-18T01:32:56;1.90;;;0.93;;
6203;SDS011;3135;42.602;23.468;2022-07-18T01:35:23;0.80;;;0.80;;
6203;SDS011;3135;42.602;23.468;2022-07-18T01:37:55;1.00;;;0.90;;
6203;SDS011;3135;42.602;23.468;2022-07-18T01:40:23;1.75;;;0.82;;
6203;SDS011;3135;42.602;23.468;2022-07-18T01:42:50;0.90;;;0.90;;
6203;SDS011;3135;42.602;23.468;2022-07-18T01:45:15;2.00;;;0.87;;
6203;SDS011;3135;42.602;23.468;2022-07-18T01:47:41;2.47;;;1.00;;
6203;SDS011;3135;42.602;23.468;2022-07-18T01:50:07;1.23;;;1.02;;
6203;SDS011;3135;42.602;23.468;2022-07-18T01:52:34;0.80;;;0.80;;
6203;SDS011;3135;42.602;23.468;2022-07-18T01:54:59;0.87;;;0.87;;
6203;SDS011;3135;42.602;23.468;2022-07-18T01:57:25;0.70;;;0.70;;
6203;SDS011;3135;42.602;23.468;2022-07-18T01:59:51;1.00;;;1.00;;
6203;SDS011;3135;42.602;23.468;2022-07-18T02:02:16;0.90;;;0.80;;
6203;SDS011;3135;42.602;23.468;2022-07-18T02:04:42;1.20;;;0.80;;
6203;SDS011;3135;42.602;23.468;2022-07-18T02:07:30;0.80;;;0.80;;
6203;SDS011;3135;42.602;23.468;2022-07-18T02:09:57;0.70;;;0.70;;
6203;SDS011;3135;42.602;23.468;2022-07-18T02:12:24;1.00;;;0.80;;
6203;SDS011;3135;42.602;23.468;2022-07-18T02:14:49;0.80;;;0.70;;
6203;SDS011;3135;42.602;23.468;2022-07-18T02:17:16;1.40;;;0.70;;
6203;SDS011;3135;42.602;23.468;2022-07-18T02:19:41;0.63;;;0.63;;
6203;SDS011;3135;42.602;23.468;2022-07-18T02:22:07;1.70;;;0.70;;
6203;SDS011;3135;42.602;23.468;2022-07-18T02:24:32;1.00;;;0.87;;
6203;SDS011;3135;42.602;23.468;2022-07-18T02:26:58;1.80;;;0.73;;
6203;SDS011;3135;42.602;23.468;2022-07-18T02:29:25;1.30;;;0.70;;
6203;SDS011;3135;42.602;23.468;2022-07-18T02:31:51;0.70;;;0.70;;
6203;SDS011;3135;42.602;23.468;2022-07-18T02:34:16;0.53;;;0.53;;
6203;SDS011;3135;42.602;23.468;2022-07-18T02:36:42;0.70;;;0.60;;
6203;SDS011;3135;42.602;23.468;2022-07-18T02:39:07;0.63;;;0.60;;
6203;SDS011;3135;42.602;23.468;2022-07-18T02:41:33;1.20;;;0.70;;
6203;SDS011;3135;42.602;23.468;2022-07-18T02:44:00;1.50;;;0.60;;
6203;SDS011;3135;42.602;23.468;2022-07-18T02:46:26;1.10;;;0.70;;
6203;SDS011;3135;42.602;23.468;2022-07-18T02:48:51;0.80;;;0.70;;
6203;SDS011;3135;42.602;23.468;2022-07-18T02:51:17;0.70;;;0.70;;
6203;SDS011;3135;42.602;23.468;2022-07-18T02:53:42;1.20;;;0.70;;
6203;SDS011;3135;42.602;23.468;2022-07-18T02:56:08;0.55;;;0.55;;
6203;SDS011;3135;42.602;23.468;2022-07-18T02:58:33;0.70;;;0.70;;
6203;SDS011;3135;42.602;23.468;2022-07-18T03:00:59;1.88;;;0.68;;
6203;SDS011;3135;42.602;23.468;2022-07-18T03:03:25;0.82;;;0.63;;
6203;SDS011;3135;42.602;23.468;2022-07-18T03:05:51;0.60;;;0.60;;
6203;SDS011;3135;42.602;23.468;2022-07-18T03:08:16;1.10;;;0.75;;
6203;SDS011;3135;42.602;23.468;2022-07-18T03:14:06;0.80;;;0.80;;
6203;SDS011;3135;42.602;23.468;2022-07-18T03:16:32;0.90;;;0.73;;
6203;SDS011;3135;42.602;23.468;2022-07-18T03:18:57;0.70;;;0.70;;
6203;SDS011;3135;42.602;23.468;2022-07-18T03:21:23;2.85;;;0.75;;
6203;SDS011;3135;42.602;23.468;2022-07-18T03:23:49;1.90;;;0.70;;
6203;SDS011;3135;42.602;23.468;2022-07-18T03:26:14;0.80;;;0.80;;
6203;SDS011;3135;42.602;23.468;2022-07-18T03:28:40;2.20;;;0.90;;
6203;SDS011;3135;42.602;23.468;2022-07-18T03:31:05;0.82;;;0.77;;
6203;SDS011;3135;42.602;23.468;2022-07-18T03:33:31;2.10;;;1.13;;
6203;SDS011;3135;42.602;23.468;2022-07-18T03:35:57;1.60;;;0.87;;
6203;SDS011;3135;42.602;23.468;2022-07-18T03:38:22;1.30;;;1.00;;
6203;SDS011;3135;42.602;23.468;2022-07-18T03:40:47;1.60;;;1.20;;
6203;SDS011;3135;42.602;23.468;2022-07-18T03:43:13;1.10;;;1.00;;
6203;SDS011;3135;42.602;23.468;2022-07-18T03:45:38;2.87;;;0.80;;
6203;SDS011;3135;42.602;23.468;2022-07-18T03:48:04;0.60;;;0.60;;
6203;SDS011;3135;42.602;23.468;2022-07-18T03:50:30;1.00;;;0.80;;
6203;SDS011;3135;42.602;23.468;2022-07-18T03:52:55;0.63;;;0.63;;
6203;SDS011;3135;42.602;23.468;2022-07-18T03:55:21;0.73;;;0.73;;
6203;SDS011;3135;42.602;23.468;2022-07-18T03:57:46;1.65;;;0.73;;
6203;SDS011;3135;42.602;23.468;2022-07-18T04:00:12;0.70;;;0.70;;
6203;SDS011;3135;42.602;23.468;2022-07-18T04:02:45;1.30;;;0.70;;
6203;SDS011;3135;42.602;23.468;2022-07-18T04:05:12;1.30;;;0.80;;
6203;SDS011;3135;42.602;23.468;2022-07-18T04:07:38;2.30;;;0.75;;
6203;SDS011;3135;42.602;23.468;2022-07-18T04:10:05;0.70;;;0.70;;
6203;SDS011;3135;42.602;23.468;2022-07-18T04:12:32;0.60;;;0.60;;
6203;SDS011;3135;42.602;23.468;2022-07-18T04:14:57;1.10;;;0.90;;
6203;SDS011;3135;42.602;23.468;2022-07-18T04:17:23;1.50;;;0.60;;
6203;SDS011;3135;42.602;23.468;2022-07-18T04:19:49;1.90;;;0.70;;
6203;SDS011;3135;42.602;23.468;2022-07-18T04:22:15;0.80;;;0.80;;
6203;SDS011;3135;42.602;23.468;2022-07-18T04:24:40;0.88;;;0.60;;
6203;SDS011;3135;42.602;23.468;2022-07-18T04:27:06;0.90;;;0.63;;
6203;SDS011;3135;42.602;23.468;2022-07-18T04:29:31;0.60;;;0.60;;
6203;SDS011;3135;42.602;23.468;2022-07-18T04:31:57;0.80;;;0.77;;
6203;SDS011;3135;42.602;23.468;2022-07-18T04:34:23;0.70;;;0.70;;
6203;SDS011;3135;42.602;23.468;2022-07-18T04:36:48;0.93;;;0.70;;
6203;SDS011;3135;42.602;23.468;2022-07-18T04:39:14;1.90;;;0.80;;
6203;SDS011;3135;42.602;23.468;2022-07-18T04:41:41;0.98;;;0.60;;
6203;SDS011;3135;42.602;23.468;2022-07-18T04:44:07;1.13;;;0.60;;
6203;SDS011;3135;42.602;23.468;2022-07-18T04:46:33;1.13;;;0.90;;
6203;SDS011;3135;42.602;23.468;2022-07-18T04:48:58;1.23;;;0.83;;
6203;SDS011;3135;42.602;23.468;2022-07-18T04:51:23;1.67;;;1.00;;
6203;SDS011;3135;42.602;23.468;2022-07-18T04:53:49;3.23;;;0.87;;
6203;SDS011;3135;42.602;23.468;2022-07-18T04:56:14;2.60;;;1.10;;
6203;SDS011;3135;42.602;23.468;2022-07-18T04:58:40;0.77;;;0.63;;
6203;SDS011;3135;42.602;23.468;2022-07-18T05:01:05;3.13;;;0.65;;
6203;SDS011;3135;42.602;23.468;2022-07-18T05:03:31;1.27;;;0.70;;
6203;SDS011;3135;42.602;23.468;2022-07-18T05:05:56;1.60;;;0.63;;
6203;SDS011;3135;42.602;23.468;2022-07-18T05:08:22;0.77;;;0.60;;
6203;SDS011;3135;42.602;23.468;2022-07-18T05:10:47;0.80;;;0.60;;
6203;SDS011;3135;42.602;23.468;2022-07-18T05:13:13;0.77;;;0.60;;
6203;SDS011;3135;42.602;23.468;2022-07-18T05:15:38;0.57;;;0.57;;
6203;SDS011;3135;42.602;23.468;2022-07-18T05:18:04;3.30;;;1.00;;
6203;SDS011;3135;42.602;23.468;2022-07-18T05:20:29;1.30;;;0.80;;
6203;SDS011;3135;42.602;23.468;2022-07-18T05:22:55;0.75;;;0.60;;
6203;SDS011;3135;42.602;23.468;2022-07-18T05:25:20;0.65;;;0.63;;
6203;SDS011;3135;42.602;23.468;2022-07-18T05:27:48;2.40;;;0.80;;
6203;SDS011;3135;42.602;23.468;2022-07-18T05:30:14;2.90;;;0.80;;
6203;SDS011;3135;42.602;23.468;2022-07-18T05:32:40;1.13;;;0.70;;
6203;SDS011;3135;42.602;23.468;2022-07-18T05:35:07;2.90;;;0.90;;
6203;SDS011;3135;42.602;23.468;2022-07-18T05:37:34;1.27;;;0.70;;
6203;SDS011;3135;42.602;23.468;2022-07-18T05:40:04;2.28;;;0.80;;
6203;SDS011;3135;42.602;23.468;2022-07-18T05:42:30;3.15;;;1.10;;
6203;SDS011;3135;42.602;23.468;2022-07-18T05:44:56;2.45;;;1.10;;
6203;SDS011;3135;42.602;23.468;2022-07-18T05:47:21;2.20;;;0.90;;
6203;SDS011;3135;42.602;23.468;2022-07-18T05:49:47;1.87;;;0.80;;
6203;SDS011;3135;42.602;23.468;2022-07-18T05:52:12;3.53;;;0.88;;
6203;SDS011;3135;42.602;23.468;2022-07-18T05:54:38;2.97;;;1.03;;
6203;SDS011;3135;42.602;23.468;2022-07-18T05:57:03;3.70;;;1.20;;
6203;SDS011;3135;42.602;23.468;2022-07-18T05:59:29;8.85;;;1.50;;
6203;SDS011;3135;42.602;23.468;2022-07-18T06:01:54;1.42;;;1.05;;
6203;SDS011;3135;42.602;23.468;2022-07-18T06:04:19;2.50;;;1.20;;
6203;SDS011;3135;42.602;23.468;2022-07-18T06:06:45;2.07;;;1.00;;
6203;SDS011;3135;42.602;23.468;2022-07-18T06:09:11;2.70;;;1.00;;
6203;SDS011;3135;42.602;23.468;2022-07-18T06:11:37;2.80;;;1.10;;
6203;SDS011;3135;42.602;23.468;2022-07-18T06:14:03;1.20;;;0.70;;
6203;SDS011;3135;42.602;23.468;2022-07-18T06:16:29;1.48;;;0.57;;
6203;SDS011;3135;42.602;23.468;2022-07-18T06:18:56;1.30;;;0.70;;
6203;SDS011;3135;42.602;23.468;2022-07-18T06:21:22;1.05;;;0.80;;
6203;SDS011;3135;42.602;23.468;2022-07-18T06:23:47;2.00;;;0.80;;
6203;SDS011;3135;42.602;23.468;2022-07-18T06:26:13;2.78;;;0.80;;
6203;SDS011;3135;42.602;23.468;2022-07-18T06:28:38;0.90;;;0.80;;
6203;SDS011;3135;42.602;23.468;2022-07-18T06:31:04;1.13;;;0.90;;
6203;SDS011;3135;42.602;23.468;2022-07-18T06:33:29;2.50;;;1.00;;
6203;SDS011;3135;42.602;23.468;2022-07-18T06:35:56;8.30;;;1.10;;
6203;SDS011;3135;42.602;23.468;2022-07-18T06:38:21;2.85;;;0.88;;
6203;SDS011;3135;42.602;23.468;2022-07-18T06:40:47;4.10;;;1.03;;
6203;SDS011;3135;42.602;23.468;2022-07-18T06:43:12;1.33;;;1.10;;
6203;SDS011;3135;42.602;23.468;2022-07-18T06:45:44;2.65;;;1.15;;
6203;SDS011;3135;42.602;23.468;2022-07-18T06:48:10;2.28;;;1.02;;
6203;SDS011;3135;42.602;23.468;2022-07-18T06:50:35;2.15;;;1.10;;
6203;SDS011;3135;42.602;23.468;2022-07-18T06:53:01;2.33;;;1.60;;
6203;SDS011;3135;42.602;23.468;2022-07-18T06:55:27;2.73;;;1.23;;
6203;SDS011;3135;42.602;23.468;2022-07-18T06:57:52;2.88;;;1.40;;
6203;SDS011;3135;42.602;23.468;2022-07-18T07:00:17;3.37;;;1.57;;
6203;SDS011;3135;42.602;23.468;2022-07-18T07:02:48;5.40;;;1.40;;
6203;SDS011;3135;42.602;23.468;2022-07-18T07:05:15;1.90;;;1.20;;
6203;SDS011;3135;42.602;23.468;2022-07-18T07:07:42;1.60;;;1.13;;
6203;SDS011;3135;42.602;23.468;2022-07-18T07:10:09;3.93;;;1.60;;
6203;SDS011;3135;42.602;23.468;2022-07-18T07:12:42;3.70;;;1.60;;
6203;SDS011;3135;42.602;23.468;2022-07-18T07:15:12;5.50;;;1.60;;
6203;SDS011;3135;42.602;23.468;2022-07-18T07:17:37;3.03;;;1.58;;
6203;SDS011;3135;42.602;23.468;2022-07-18T07:20:04;4.00;;;1.50;;
6203;SDS011;3135;42.602;23.468;2022-07-18T07:22:31;1.45;;;1.05;;
6203;SDS011;3135;42.602;23.468;2022-07-18T07:24:57;2.20;;;1.00;;
6203;SDS011;3135;42.602;23.468;2022-07-18T07:27:22;0.80;;;0.80;;
6203;SDS011;3135;42.602;23.468;2022-07-18T07:29:48;1.10;;;0.90;;
6203;SDS011;3135;42.602;23.468;2022-07-18T07:32:13;1.87;;;0.90;;
6203;SDS011;3135;42.602;23.468;2022-07-18T07:34:38;1.63;;;0.97;;
6203;SDS011;3135;42.602;23.468;2022-07-18T07:37:04;1.50;;;1.40;;
6203;SDS011;3135;42.602;23.468;2022-07-18T07:39:29;3.27;;;1.00;;
6203;SDS011;3135;42.602;23.468;2022-07-18T07:41:55;0.80;;;0.80;;
6203;SDS011;3135;42.602;23.468;2022-07-18T07:44:20;0.80;;;0.80;;
6203;SDS011;3135;42.602;23.468;2022-07-18T07:46:46;1.27;;;0.80;;
6203;SDS011;3135;42.602;23.468;2022-07-18T07:49:11;1.63;;;0.80;;
6203;SDS011;3135;42.602;23.468;2022-07-18T07:51:36;1.50;;;0.70;;
6203;SDS011;3135;42.602;23.468;2022-07-18T07:54:02;1.90;;;0.70;;
6203;SDS011;3135;42.602;23.468;2022-07-18T07:56:30;2.30;;;0.65;;
6203;SDS011;3135;42.602;23.468;2022-07-18T07:58:56;0.80;;;0.80;;
6203;SDS011;3135;42.602;23.468;2022-07-18T08:01:21;1.83;;;0.70;;
6203;SDS011;3135;42.602;23.468;2022-07-18T08:03:47;1.53;;;0.80;;
6203;SDS011;3135;42.602;23.468;2022-07-18T08:06:14;3.58;;;0.80;;
6203;SDS011;3135;42.602;23.468;2022-07-18T08:08:39;2.63;;;0.80;;
6203;SDS011;3135;42.602;23.468;2022-07-18T08:11:05;1.25;;;0.90;;
6203;SDS011;3135;42.602;23.468;2022-07-18T08:13:31;0.80;;;0.77;;
6203;SDS011;3135;42.602;23.468;2022-07-18T08:15:56;2.08;;;0.90;;
6203;SDS011;3135;42.602;23.468;2022-07-18T08:18:22;1.30;;;0.80;;
6203;SDS011;3135;42.602;23.468;2022-07-18T08:20:47;1.63;;;0.80;;
6203;SDS011;3135;42.602;23.468;2022-07-18T08:23:13;0.73;;;0.73;;
6203;SDS011;3135;42.602;23.468;2022-07-18T08:25:39;0.90;;;0.80;;
6203;SDS011;3135;42.602;23.468;2022-07-18T08:28:06;0.70;;;0.70;;
6203;SDS011;3135;42.602;23.468;2022-07-18T08:30:33;4.10;;;0.77;;
6203;SDS011;3135;42.602;23.468;2022-07-18T08:32:59;0.80;;;0.80;;
6203;SDS011;3135;42.602;23.468;2022-07-18T08:35:26;1.13;;;0.70;;
6203;SDS011;3135;42.602;23.468;2022-07-18T08:37:52;1.15;;;0.98;;
6203;SDS011;3135;42.602;23.468;2022-07-18T08:40:17;1.30;;;1.00;;
6203;SDS011;3135;42.602;23.468;2022-07-18T08:42:43;4.40;;;1.08;;
6203;SDS011;3135;42.602;23.468;2022-07-18T08:45:09;1.40;;;0.80;;
6203;SDS011;3135;42.602;23.468;2022-07-18T08:47:35;1.50;;;1.10;;
6203;SDS011;3135;42.602;23.468;2022-07-18T08:50:00;3.80;;;0.90;;
6203;SDS011;3135;42.602;23.468;2022-07-18T08:52:29;2.30;;;0.80;;
6203;SDS011;3135;42.602;23.468;2022-07-18T08:54:55;0.80;;;0.77;;
6203;SDS011;3135;42.602;23.468;2022-07-18T08:57:21;2.22;;;1.30;;
6203;SDS011;3135;42.602;23.468;2022-07-18T08:59:47;1.52;;;0.93;;
6203;SDS011;3135;42.602;23.468;2022-07-18T09:02:13;2.05;;;1.30;;
6203;SDS011;3135;42.602;23.468;2022-07-18T09:04:39;1.33;;;0.90;;
6203;SDS011;3135;42.602;23.468;2022-07-18T09:07:06;3.13;;;1.00;;
6203;SDS011;3135;42.602;23.468;2022-07-18T09:09:36;2.53;;;1.00;;
6203;SDS011;3135;42.602;23.468;2022-07-18T09:12:04;2.37;;;0.90;;
6203;SDS011;3135;42.602;23.468;2022-07-18T09:17:09;1.63;;;0.90;;
6203;SDS011;3135;42.602;23.468;2022-07-18T09:22:30;2.83;;;1.00;;
6203;SDS011;3135;42.602;23.468;2022-07-18T09:32:36;1.30;;;1.00;;
6203;SDS011;3135;42.602;23.468;2022-07-18T09:35:10;3.70;;;1.17;;
6203;SDS011;3135;42.602;23.468;2022-07-18T09:37:37;1.10;;;1.00;;
6203;SDS011;3135;42.602;23.468;2022-07-18T09:42:40;0.90;;;0.90;;
6203;SDS011;3135;42.602;23.468;2022-07-18T09:45:06;1.17;;;1.07;;
6203;SDS011;3135;42.602;23.468;2022-07-18T09:47:33;1.50;;;0.80;;
6203;SDS011;3135;42.602;23.468;2022-07-18T09:50:49;1.52;;;1.10;;
6203;SDS011;3135;42.602;23.468;2022-07-18T09:55:42;1.60;;;1.10;;
6203;SDS011;3135;42.602;23.468;2022-07-18T09:58:09;1.10;;;1.00;;
6203;SDS011;3135;42.602;23.468;2022-07-18T10:00:37;1.50;;;1.08;;
6203;SDS011;3135;42.602;23.468;2022-07-18T10:03:04;1.60;;;1.20;;
6203;SDS011;3135;42.602;23.468;2022-07-18T10:05:34;1.40;;;1.10;;
6203;SDS011;3135;42.602;23.468;2022-07-18T10:08:02;1.90;;;1.05;;
6203;SDS011;3135;42.602;23.468;2022-07-18T10:10:30;1.63;;;1.20;;
6203;SDS011;3135;42.602;23.468;2022-07-18T10:12:57;0.90;;;0.90;;
6203;SDS011;3135;42.602;23.468;2022-07-18T10:15:25;1.13;;;1.00;;
6203;SDS011;3135;42.602;23.468;2022-07-18T10:17:52;3.92;;;1.35;;
6203;SDS011;3135;42.602;23.468;2022-07-18T10:20:24;1.10;;;1.00;;
6203;SDS011;3135;42.602;23.468;2022-07-18T10:22:52;1.10;;;1.00;;
6203;SDS011;3135;42.602;23.468;2022-07-18T10:25:21;1.10;;;1.00;;
6203;SDS011;3135;42.602;23.468;2022-07-18T10:30:33;2.90;;;1.00;;
6203;SDS011;3135;42.602;23.468;2022-07-18T10:33:01;1.00;;;1.00;;
6203;SDS011;3135;42.602;23.468;2022-07-18T10:38:23;1.52;;;1.10;;
6203;SDS011;3135;42.602;23.468;2022-07-18T10:43:47;1.90;;;0.80;;
6203;SDS011;3135;42.602;23.468;2022-07-18T10:46:12;1.90;;;1.00;;
6203;SDS011;3135;42.602;23.468;2022-07-18T10:51:09;2.00;;;1.00;;
6203;SDS011;3135;42.602;23.468;2022-07-18T10:57:04;1.75;;;1.10;;
6203;SDS011;3135;42.602;23.468;2022-07-18T10:59:38;1.85;;;1.05;;
6203;SDS011;3135;42.602;23.468;2022-07-18T11:01:56;0.90;;;0.90;;
6203;SDS011;3135;42.602;23.468;2022-07-18T11:04:22;0.90;;;0.90;;
6203;SDS011;3135;42.602;23.468;2022-07-18T11:06:56;1.35;;;1.00;;
6203;SDS011;3135;42.602;23.468;2022-07-18T11:09:39;0.88;;;0.88;;
6203;SDS011;3135;42.602;23.468;2022-07-18T11:22:59;1.35;;;1.10;;
6203;SDS011;3135;42.602;23.468;2022-07-18T11:25:25;2.10;;;1.15;;
6203;SDS011;3135;42.602;23.468;2022-07-18T11:27:53;2.53;;;1.23;;
6203;SDS011;3135;42.602;23.468;2022-07-18T11:30:19;1.33;;;1.00;;
6203;SDS011;3135;42.602;23.468;2022-07-18T11:32:46;3.08;;;1.33;;
6203;SDS011;3135;42.602;23.468;2022-07-18T11:35:14;1.23;;;1.10;;
6203;SDS011;3135;42.602;23.468;2022-07-18T11:37:46;5.10;;;1.40;;
6203;SDS011;3135;42.602;23.468;2022-07-18T11:40:15;2.80;;;1.20;;
6203;SDS011;3135;42.602;23.468;2022-07-18T11:42:41;1.58;;;1.02;;
6203;SDS011;3135;42.602;23.468;2022-07-18T11:45:08;2.30;;;1.30;;
6203;SDS011;3135;42.602;23.468;2022-07-18T11:47:51;3.20;;;1.30;;
6203;SDS011;3135;42.602;23.468;2022-07-18T11:50:17;1.88;;;1.20;;
6203;SDS011;3135;42.602;23.468;2022-07-18T11:52:54;1.02;;;1.00;;
6203;SDS011;3135;42.602;23.468;2022-07-18T11:55:32;1.10;;;0.93;;
6203;SDS011;3135;42.602;23.468;2022-07-18T11:58:10;2.80;;;1.30;;
6203;SDS011;3135;42.602;23.468;2022-07-18T12:00:36;1.20;;;1.00;;
6203;SDS011;3135;42.602;23.468;2022-07-18T12:03:09;2.20;;;1.02;;
6203;SDS011;3135;42.602;23.468;2022-07-18T12:05:42;1.60;;;1.27;;
6203;SDS011;3135;42.602;23.468;2022-07-18T12:08:29;3.00;;;1.10;;
6203;SDS011;3135;42.602;23.468;2022-07-18T12:11:14;2.85;;;1.00;;
6203;SDS011;3135;42.602;23.468;2022-07-18T12:13:52;1.40;;;1.30;;
6203;SDS011;3135;42.602;23.468;2022-07-18T12:18:59;1.70;;;1.23;;
6203;SDS011;3135;42.602;23.468;2022-07-18T12:21:41;1.00;;;1.00;;
6203;SDS011;3135;42.602;23.468;2022-07-18T12:24:28;1.30;;;1.20;;
6203;SDS011;3135;42.602;23.468;2022-07-18T12:27:10;1.20;;;1.10;;
6203;SDS011;3135;42.602;23.468;2022-07-18T12:29:53;1.23;;;1.00;;
6203;SDS011;3135;42.602;23.468;2022-07-18T12:32:21;2.33;;;1.15;;
6203;SDS011;3135;42.602;23.468;2022-07-18T12:35:02;1.20;;;1.02;;
6203;SDS011;3135;42.602;23.468;2022-07-18T12:40:24;3.63;;;1.00;;
6203;SDS011;3135;42.602;23.468;2022-07-18T12:43:01;1.10;;;1.10;;
6203;SDS011;3135;42.602;23.468;2022-07-18T12:45:28;1.20;;;1.13;;
6203;SDS011;3135;42.602;23.468;2022-07-18T12:47:53;1.70;;;0.90;;
6203;SDS011;3135;42.602;23.468;2022-07-18T12:50:19;2.07;;;1.10;;
6203;SDS011;3135;42.602;23.468;2022-07-18T12:52:44;1.77;;;1.00;;
6203;SDS011;3135;42.602;23.468;2022-07-18T12:55:10;1.07;;;1.07;;
6203;SDS011;3135;42.602;23.468;2022-07-18T12:57:35;1.10;;;1.00;;
6203;SDS011;3135;42.602;23.468;2022-07-18T13:00:01;1.07;;;1.00;;
6203;SDS011;3135;42.602;23.468;2022-07-18T13:02:27;1.53;;;0.80;;
6203;SDS011;3135;42.602;23.468;2022-07-18T13:04:52;1.10;;;0.90;;
6203;SDS011;3135;42.602;23.468;2022-07-18T13:07:18;1.60;;;0.90;;
6203;SDS011;3135;42.602;23.468;2022-07-18T13:09:43;1.70;;;0.90;;
6203;SDS011;3135;42.602;23.468;2022-07-18T13:12:09;3.00;;;1.00;;
6203;SDS011;3135;42.602;23.468;2022-07-18T13:14:34;1.08;;;0.90;;
6203;SDS011;3135;42.602;23.468;2022-07-18T13:17:00;0.80;;;0.80;;
6203;SDS011;3135;42.602;23.468;2022-07-18T13:19:26;0.80;;;0.80;;
6203;SDS011;3135;42.602;23.468;2022-07-18T13:21:51;1.05;;;1.00;;
6203;SDS011;3135;42.602;23.468;2022-07-18T13:24:17;1.53;;;1.10;;
6203;SDS011;3135;42.602;23.468;2022-07-18T13:26:42;2.75;;;1.13;;
6203;SDS011;3135;42.602;23.468;2022-07-18T13:29:08;1.20;;;1.10;;
6203;SDS011;3135;42.602;23.468;2022-07-18T13:31:34;1.50;;;1.00;;
6203;SDS011;3135;42.602;23.468;2022-07-18T13:34:01;1.17;;;1.10;;
6203;SDS011;3135;42.602;23.468;2022-07-18T13:36:26;1.50;;;1.20;;
6203;SDS011;3135;42.602;23.468;2022-07-18T13:38:52;1.60;;;1.50;;
6203;SDS011;3135;42.602;23.468;2022-07-18T13:41:18;7.30;;;2.30;;
6203;SDS011;3135;42.602;23.468;2022-07-18T13:43:43;2.45;;;1.77;;
6203;SDS011;3135;42.602;23.468;2022-07-18T13:46:09;1.60;;;1.50;;
6203;SDS011;3135;42.602;23.468;2022-07-18T13:48:36;3.13;;;1.60;;
6203;SDS011;3135;42.602;23.468;2022-07-18T13:51:02;1.58;;;1.48;;
6203;SDS011;3135;42.602;23.468;2022-07-18T13:53:28;3.63;;;1.35;;
6203;SDS011;3135;42.602;23.468;2022-07-18T13:55:54;1.55;;;1.45;;
6203;SDS011;3135;42.602;23.468;2022-07-18T13:58:19;2.30;;;1.50;;
6203;SDS011;3135;42.602;23.468;2022-07-18T14:00:45;2.35;;;1.60;;
6203;SDS011;3135;42.602;23.468;2022-07-18T14:03:11;1.83;;;1.53;;
6203;SDS011;3135;42.602;23.468;2022-07-18T14:05:36;7.10;;;2.10;;
6203;SDS011;3135;42.602;23.468;2022-07-18T14:08:03;4.60;;;1.70;;
6203;SDS011;3135;42.602;23.468;2022-07-18T14:10:29;2.08;;;1.45;;
6203;SDS011;3135;42.602;23.468;2022-07-18T14:12:55;3.70;;;1.70;;
6203;SDS011;3135;42.602;23.468;2022-07-18T14:15:20;1.77;;;1.67;;
6203;SDS011;3135;42.602;23.468;2022-07-18T14:17:46;2.93;;;1.63;;
6203;SDS011;3135;42.602;23.468;2022-07-18T14:20:12;1.83;;;1.52;;
6203;SDS011;3135;42.602;23.468;2022-07-18T14:22:39;3.40;;;1.90;;
6203;SDS011;3135;42.602;23.468;2022-07-18T14:25:06;6.45;;;2.00;;
6203;SDS011;3135;42.602;23.468;2022-07-18T14:27:33;4.13;;;2.00;;
6203;SDS011;3135;42.602;23.468;2022-07-18T14:29:58;1.80;;;1.70;;
6203;SDS011;3135;42.602;23.468;2022-07-18T14:32:25;3.70;;;1.80;;
6203;SDS011;3135;42.602;23.468;2022-07-18T14:34:51;2.03;;;1.90;;
6203;SDS011;3135;42.602;23.468;2022-07-18T14:37:17;4.32;;;1.80;;
6203;SDS011;3135;42.602;23.468;2022-07-18T14:39:42;5.20;;;2.00;;
6203;SDS011;3135;42.602;23.468;2022-07-18T14:42:08;4.20;;;2.10;;
6203;SDS011;3135;42.602;23.468;2022-07-18T14:44:33;3.97;;;2.00;;
6203;SDS011;3135;42.602;23.468;2022-07-18T14:46:59;4.17;;;1.97;;
6203;SDS011;3135;42.602;23.468;2022-07-18T14:49:24;8.10;;;1.90;;
6203;SDS011;3135;42.602;23.468;2022-07-18T14:51:50;2.87;;;2.10;;
6203;SDS011;3135;42.602;23.468;2022-07-18T14:54:15;2.40;;;1.90;;
6203;SDS011;3135;42.602;23.468;2022-07-18T14:56:41;4.87;;;2.03;;
6203;SDS011;3135;42.602;23.468;2022-07-18T14:59:06;2.30;;;2.10;;
6203;SDS011;3135;42.602;23.468;2022-07-18T15:01:32;4.50;;;1.87;;
6203;SDS011;3135;42.602;23.468;2022-07-18T15:03:58;3.05;;;2.17;;
6203;SDS011;3135;42.602;23.468;2022-07-18T15:06:24;2.50;;;1.80;;
6203;SDS011;3135;42.602;23.468;2022-07-18T15:08:50;3.55;;;1.73;;
6203;SDS011;3135;42.602;23.468;2022-07-18T15:11:15;3.70;;;2.20;;
6203;SDS011;3135;42.602;23.468;2022-07-18T15:13:43;3.65;;;2.20;;
6203;SDS011;3135;42.602;23.468;2022-07-18T15:16:09;6.35;;;2.20;;
6203;SDS011;3135;42.602;23.468;2022-07-18T15:18:35;2.37;;;1.60;;
6203;SDS011;3135;42.602;23.468;2022-07-18T15:21:01;4.55;;;2.00;;
6203;SDS011;3135;42.602;23.468;2022-07-18T15:23:26;3.37;;;2.50;;
6203;SDS011;3135;42.602;23.468;2022-07-18T15:25:52;2.00;;;1.90;;
6203;SDS011;3135;42.602;23.468;2022-07-18T15:28:17;2.35;;;1.90;;
6203;SDS011;3135;42.602;23.468;2022-07-18T15:30:42;2.50;;;1.90;;
6203;SDS011;3135;42.602;23.468;2022-07-18T15:33:08;2.20;;;1.67;;
6203;SDS011;3135;42.602;23.468;2022-07-18T15:35:33;2.17;;;1.93;;
6203;SDS011;3135;42.602;23.468;2022-07-18T15:37:59;6.13;;;2.10;;
6203;SDS011;3135;42.602;23.468;2022-07-18T15:40:24;2.83;;;2.00;;
6203;SDS011;3135;42.602;23.468;2022-07-18T15:42:50;5.27;;;2.13;;
6203;SDS011;3135;42.602;23.468;2022-07-18T15:45:15;3.80;;;1.80;;
6203;SDS011;3135;42.602;23.468;2022-07-18T15:47:41;1.87;;;1.67;;
6203;SDS011;3135;42.602;23.468;2022-07-18T15:50:06;2.67;;;1.87;;